64TS weather

CHI Baylor St Luke's Medical Center Heliport
Houston, Texas, United States

Public forecast

Using degrees Fahrenheit for public forecast. Weather courtesy of forecast.io.

Closest aviation weather report (METAR) to CHI Baylor St Luke's Medical Center Heliport

Closest report is William P Hobby Airport, 7.3 nm (13.5 km) ESE. Retrieved 2020/04/09 11:53 UTC (1 hour ago):

KHOU 091153Z 24007KT 6SM BR BKN009 BKN250 23/21 A2985 RMK AO2 SLP114 T02330211 10239 20222 53004

Closest aviation forecast (TAF) to CHI Baylor St Luke's Medical Center Heliport

Closest forecast is William P Hobby Airport, 7.3 nm (13.5 km) ESE. Retrieved 2020/04/09 12:51 UTC (5 minutes ago):

TAF KHOU 091149Z 0912/1012 24005KT 5SM BR OVC004 TEMPO 0912/0914 6SM BR SCT004 OVC008 FM091400 VRB04KT P6SM SCT011 BKN035 FM091900 VRB04KT P6SM VCSH SCT030 BKN200 FM092300 VRB03KT P6SM VCTS BKN035CB OVC200 TEMPO 1000/1004 VRB10G30KT 1SM +TSRA BKN019CB OVC030 FM100400 VRB11KT 5SM -SHRA BR SCT014 OVC019 FM100900 05010KT P6SM VCSH SCT009 OVC015